Time;durP1;ratioP1;P1;durP2;ratioP2;P2;SDS_P1;SDS_P2;PMS_P1;PMS_P2;Temp;Humidity;BMP_temperature;BMP_pressure;BME280_temperature;BME280_humidity;BME280_pressure;Samples;Min_cycle;Max_cycle;Signal;HPM_P1;HPM_P2
2021/06/21 00:02:23;;;;;;;19.70;7.07;;;;;;;;;;5043611;28;20445;-80
2021/06/21 00:04:53;;;;;;;17.00;5.95;;;;;;;;;;5061421;28;20052;-80
2021/06/21 00:07:19;;;;;;;19.70;5.55;;;;;;;;;;5044115;28;20599;-80
2021/06/21 00:09:45;;;;;;;14.75;5.18;;;;;;;;;;5062040;28;20059;-80
2021/06/21 00:12:12;;;;;;;18.17;5.93;;;;;;;;;;5061503;28;20032;-80
2021/06/21 00:14:39;;;;;;;17.92;5.25;;;;;;;;;;5061211;28;20032;-79
2021/06/21 00:17:05;;;;;;;18.10;4.93;;;;;;;;;;5044156;28;20036;-79
2021/06/21 00:19:31;;;;;;;11.00;4.13;;;;;;;;;;5062052;28;20100;-80
2021/06/21 00:21:58;;;;;;;13.93;4.40;;;;;;;;;;5061767;28;20036;-80
2021/06/21 00:24:24;;;;;;;18.17;5.20;;;;;;;;;;5060844;28;20017;-80
2021/06/21 00:26:51;;;;;;;14.65;5.47;;;;;;;;;;5055621;28;20029;-79
2021/06/21 00:29:17;;;;;;;16.00;6.45;;;;;;;;;;5056902;28;20037;-79
2021/06/21 00:31:44;;;;;;;13.95;5.57;;;;;;;;;;5061263;28;20021;-80
2021/06/21 00:34:10;;;;;;;15.77;5.53;;;;;;;;;;5064242;28;20029;-79
2021/06/21 00:36:37;;;;;;;18.25;6.43;;;;;;;;;;5037644;28;20049;-79
2021/06/21 00:39:05;;;;;;;15.35;5.20;;;;;;;;;;5057625;28;20032;-80
2021/06/21 00:41:31;;;;;;;11.95;5.63;;;;;;;;;;5059655;28;20017;-80
2021/06/21 00:43:57;;;;;;;21.88;8.10;;;;;;;;;;5041325;28;20035;-80
2021/06/21 00:46:23;;;;;;;24.15;7.30;;;;;;;;;;5059471;28;20106;-80
2021/06/21 00:48:49;;;;;;;15.00;6.07;;;;;;;;;;5060442;28;20056;-80
2021/06/21 00:51:16;;;;;;;13.18;5.13;;;;;;;;;;5052737;28;20051;-80
2021/06/21 00:53:43;;;;;;;13.40;6.10;;;;;;;;;;5058592;28;20061;-80
2021/06/21 00:56:09;;;;;;;11.20;5.40;;;;;;;;;;5058506;28;20037;-80
2021/06/21 00:58:35;;;;;;;11.05;5.80;;;;;;;;;;5059376;28;20033;-80
2021/06/21 01:01:02;;;;;;;20.25;6.85;;;;;;;;;;5059911;28;20374;-80
2021/06/21 01:03:28;;;;;;;15.45;6.25;;;;;;;;;;5041955;28;20021;-79
2021/06/21 01:05:54;;;;;;;18.30;6.57;;;;;;;;;;5060613;28;20055;-79
2021/06/21 01:08:20;;;;;;;16.05;6.22;;;;;;;;;;5060551;28;20044;-80
2021/06/21 01:10:48;;;;;;;16.85;6.07;;;;;;;;;;5060015;28;20029;-80
2021/06/21 01:13:20;;;;;;;22.20;7.32;;;;;;;;;;5038993;28;20434;-80
2021/06/21 01:15:59;;;;;;;18.25;6.40;;;;;;;;;;5056322;28;20033;-80
2021/06/21 01:18:27;;;;;;;21.17;6.80;;;;;;;;;;5052342;28;20111;-80
2021/06/21 01:21:09;;;;;;;19.25;7.60;;;;;;;;;;5056001;28;20047;-80
2021/06/21 01:23:47;;;;;;;22.88;6.22;;;;;;;;;;5043971;28;20491;-80
2021/06/21 01:26:16;;;;;;;17.30;5.60;;;;;;;;;;5057218;28;20041;-79
2021/06/21 01:29:01;;;;;;;12.63;5.50;;;;;;;;;;5058529;28;20108;-80
2021/06/21 01:31:50;;;;;;;15.07;5.57;;;;;;;;;;5061976;28;20029;-80
2021/06/21 01:34:17;;;;;;;11.05;4.28;;;;;;;;;;5050446;28;20048;-80
2021/06/21 01:36:47;;;;;;;5.50;4.00;;;;;;;;;;5042586;28;20029;-80
2021/06/21 01:39:13;;;;;;;9.52;4.38;;;;;;;;;;5061650;28;20032;-80
2021/06/21 01:41:44;;;;;;;12.32;3.83;;;;;;;;;;5069965;28;20036;-79
2021/06/21 01:44:11;;;;;;;20.27;4.90;;;;;;;;;;5071111;28;20025;-79
2021/06/21 01:46:39;;;;;;;20.30;5.47;;;;;;;;;;5071021;28;20548;-78
2021/06/21 01:49:07;;;;;;;16.42;4.85;;;;;;;;;;5071287;28;20029;-79
2021/06/21 01:51:34;;;;;;;17.92;5.03;;;;;;;;;;5061975;28;20025;-79
2021/06/21 01:54:01;;;;;;;11.90;4.18;;;;;;;;;;5069997;28;20049;-79
2021/06/21 01:56:30;;;;;;;18.73;5.95;;;;;;;;;;5070550;28;20037;-84
2021/06/21 01:58:57;;;;;;;14.55;5.00;;;;;;;;;;5066265;28;20028;-82
2021/06/21 02:01:24;;;;;;;12.38;4.78;;;;;;;;;;5066323;28;20029;-79
2021/06/21 02:04:00;;;;;;;16.75;5.28;;;;;;;;;;5058710;28;20141;-80
2021/06/21 02:06:27;;;;;;;14.00;5.07;;;;;;;;;;5067351;28;20025;-80
2021/06/21 02:08:54;;;;;;;10.75;4.05;;;;;;;;;;5067217;28;20089;-82
2021/06/21 02:11:21;;;;;;;12.80;4.40;;;;;;;;;;5077287;28;20043;-84
2021/06/21 02:13:49;;;;;;;11.23;4.20;;;;;;;;;;5070800;28;20346;-81
2021/06/21 02:16:15;;;;;;;15.10;5.10;;;;;;;;;;5047132;28;20025;-81
2021/06/21 02:18:43;;;;;;;15.80;5.95;;;;;;;;;;5063762;28;20032;-83
2021/06/21 02:21:09;;;;;;;13.27;4.97;;;;;;;;;;5045561;28;20033;-81
2021/06/21 02:23:37;;;;;;;15.13;5.00;;;;;;;;;;5063809;28;20117;-82
2021/06/21 02:26:03;;;;;;;12.88;4.63;;;;;;;;;;5063425;28;20031;-81
2021/06/21 02:28:30;;;;;;;12.10;4.55;;;;;;;;;;5062360;28;20034;-80
2021/06/21 02:30:58;;;;;;;12.57;4.57;;;;;;;;;;5062854;28;20029;-81
2021/06/21 02:33:24;;;;;;;16.45;5.10;;;;;;;;;;5063054;28;20033;-80
2021/06/21 02:35:51;;;;;;;14.95;4.30;;;;;;;;;;5062225;28;20037;-80
2021/06/21 02:38:17;;;;;;;14.48;4.50;;;;;;;;;;5061654;28;20108;-80
2021/06/21 02:40:44;;;;;;;15.32;4.93;;;;;;;;;;5062462;28;20123;-81
2021/06/21 02:43:10;;;;;;;13.05;4.00;;;;;;;;;;5062773;28;20393;-80
2021/06/21 02:45:36;;;;;;;10.80;4.13;;;;;;;;;;5062111;28;20033;-80
2021/06/21 02:48:04;;;;;;;14.88;4.18;;;;;;;;;;5043871;28;20017;-79
2021/06/21 02:50:30;;;;;;;10.75;4.03;;;;;;;;;;5041209;28;20072;-82
2021/06/21 02:53:15;;;;;;;13.57;4.30;;;;;;;;;;5028574;28;20037;-80
2021/06/21 02:55:50;;;;;;;13.55;4.38;;;;;;;;;;5059933;28;20028;-81
2021/06/21 02:58:27;;;;;;;7.78;3.20;;;;;;;;;;5042960;28;20026;-80
2021/06/21 03:00:54;;;;;;;9.48;3.45;;;;;;;;;;5042985;28;20076;-81
2021/06/21 03:03:24;;;;;;;7.82;3.50;;;;;;;;;;5042052;28;20056;-80
2021/06/21 03:05:51;;;;;;;9.10;3.55;;;;;;;;;;5041623;28;20109;-80
2021/06/21 03:08:18;;;;;;;13.25;4.55;;;;;;;;;;5059475;28;20172;-80
2021/06/21 03:10:45;;;;;;;6.93;3.10;;;;;;;;;;5061398;28;20078;-81
2021/06/21 03:13:12;;;;;;;15.55;4.25;;;;;;;;;;5062102;28;20029;-82
2021/06/21 03:15:38;;;;;;;17.50;4.22;;;;;;;;;;5062274;28;20029;-83
2021/06/21 03:18:05;;;;;;;9.20;3.47;;;;;;;;;;5061973;28;20037;-81
2021/06/21 03:20:31;;;;;;;14.88;4.70;;;;;;;;;;5062007;28;20105;-83
2021/06/21 03:22:58;;;;;;;13.48;3.78;;;;;;;;;;5061078;28;20036;-81
2021/06/21 03:25:32;;;;;;;20.55;5.00;;;;;;;;;;5061667;28;20108;-81
2021/06/21 03:27:58;;;;;;;10.18;3.20;;;;;;;;;;5056491;28;20040;-80
2021/06/21 03:30:25;;;;;;;12.57;3.30;;;;;;;;;;5057060;28;20191;-79
2021/06/21 03:32:54;;;;;;;15.07;3.75;;;;;;;;;;5058516;28;20025;-79
2021/06/21 03:35:21;;;;;;;9.07;3.83;;;;;;;;;;5041089;28;20033;-80
2021/06/21 03:37:47;;;;;;;9.38;3.50;;;;;;;;;;5043278;28;20101;-80
2021/06/21 03:40:14;;;;;;;9.13;3.30;;;;;;;;;;5063290;28;20033;-79
2021/06/21 03:42:40;;;;;;;13.82;3.45;;;;;;;;;;5064254;28;20025;-80
2021/06/21 03:45:07;;;;;;;9.45;3.60;;;;;;;;;;5062884;28;20031;-79
2021/06/21 03:47:35;;;;;;;12.77;3.53;;;;;;;;;;5062619;28;20029;-80
2021/06/21 03:50:01;;;;;;;13.70;4.32;;;;;;;;;;5056879;28;20061;-77
2021/06/21 03:52:27;;;;;;;9.30;3.35;;;;;;;;;;5056362;28;20033;-79
2021/06/21 03:55:06;;;;;;;10.73;3.70;;;;;;;;;;5057651;28;20029;-79
2021/06/21 03:57:33;;;;;;;12.43;3.38;;;;;;;;;;5056448;28;20052;-79
2021/06/21 03:59:59;;;;;;;15.05;3.50;;;;;;;;;;5056917;28;20381;-79
2021/06/21 04:02:25;;;;;;;19.13;4.18;;;;;;;;;;5056888;28;20029;-78
2021/06/21 04:04:51;;;;;;;8.48;3.15;;;;;;;;;;5037784;28;20434;-78
2021/06/21 04:07:17;;;;;;;12.38;3.28;;;;;;;;;;5055864;28;20040;-79
2021/06/21 04:09:43;;;;;;;9.55;3.25;;;;;;;;;;5055217;28;20036;-78
2021/06/21 04:12:09;;;;;;;7.82;2.92;;;;;;;;;;5056362;28;20079;-78
2021/06/21 04:14:35;;;;;;;6.47;2.17;;;;;;;;;;5056606;28;20122;-78
2021/06/21 04:17:02;;;;;;;13.10;2.92;;;;;;;;;;5055147;28;20032;-78
2021/06/21 04:19:28;;;;;;;11.48;2.85;;;;;;;;;;5056118;28;20377;-79
2021/06/21 04:21:55;;;;;;;9.57;2.40;;;;;;;;;;5055737;28;20025;-79
2021/06/21 04:24:21;;;;;;;9.10;3.03;;;;;;;;;;5056485;28;20017;-79
2021/06/21 04:26:47;;;;;;;9.77;3.35;;;;;;;;;;5054735;28;20033;-80
2021/06/21 04:29:13;;;;;;;6.10;2.92;;;;;;;;;;5054526;28;20096;-80
2021/06/21 04:31:38;;;;;;;6.00;2.65;;;;;;;;;;5054456;28;20044;-80
2021/06/21 04:34:04;;;;;;;8.07;2.90;;;;;;;;;;5054463;28;20382;-79
2021/06/21 04:36:31;;;;;;;5.93;2.75;;;;;;;;;;5054764;28;20029;-79
2021/06/21 04:38:57;;;;;;;8.05;2.42;;;;;;;;;;5053976;28;20096;-78
2021/06/21 04:41:23;;;;;;;8.77;2.75;;;;;;;;;;5056469;28;20032;-80
2021/06/21 04:43:49;;;;;;;7.63;2.33;;;;;;;;;;5060590;28;20041;-80
2021/06/21 04:46:15;;;;;;;7.63;2.67;;;;;;;;;;5060028;28;20356;-80
2021/06/21 04:48:42;;;;;;;9.93;2.50;;;;;;;;;;5058832;28;20088;-81
2021/06/21 04:51:08;;;;;;;10.27;2.97;;;;;;;;;;5058441;28;20067;-79
2021/06/21 04:53:34;;;;;;;9.25;2.78;;;;;;;;;;5058143;28;20048;-79
2021/06/21 04:56:00;;;;;;;6.47;2.25;;;;;;;;;;5041267;28;20041;-79
2021/06/21 04:58:26;;;;;;;5.70;2.30;;;;;;;;;;5057669;28;20029;-80
2021/06/21 05:00:52;;;;;;;5.20;1.77;;;;;;;;;;5058013;28;20037;-80
2021/06/21 05:03:18;;;;;;;9.73;2.33;;;;;;;;;;5054524;28;20110;-78
2021/06/21 05:05:44;;;;;;;6.20;2.28;;;;;;;;;;5037618;28;20025;-78
2021/06/21 05:08:11;;;;;;;4.78;1.73;;;;;;;;;;5052847;28;20397;-78
2021/06/21 05:10:37;;;;;;;6.18;2.30;;;;;;;;;;5053327;28;20475;-78
2021/06/21 05:13:03;;;;;;;4.38;2.13;;;;;;;;;;5034895;28;20028;-78
2021/06/21 05:15:29;;;;;;;3.92;2.03;;;;;;;;;;5053458;28;20382;-78
2021/06/21 05:17:55;;;;;;;6.28;1.85;;;;;;;;;;5052338;28;20443;-78
2021/06/21 05:20:21;;;;;;;5.05;2.55;;;;;;;;;;5052714;28;20017;-78
2021/06/21 05:22:49;;;;;;;10.07;3.42;;;;;;;;;;5051981;28;20040;-78
2021/06/21 05:25:15;;;;;;;8.13;2.78;;;;;;;;;;5051214;28;20501;-78
2021/06/21 05:27:41;;;;;;;8.98;2.58;;;;;;;;;;5052146;28;20040;-78
2021/06/21 05:30:07;;;;;;;7.72;2.53;;;;;;;;;;5052621;28;20029;-78
2021/06/21 05:32:33;;;;;;;5.75;2.30;;;;;;;;;;5052736;28;20029;-78
2021/06/21 05:35:00;;;;;;;5.22;2.10;;;;;;;;;;5033950;28;20147;-78
2021/06/21 05:37:26;;;;;;;7.25;2.42;;;;;;;;;;5053545;28;20107;-78
2021/06/21 05:39:52;;;;;;;4.80;2.75;;;;;;;;;;5073501;28;20036;-78
2021/06/21 05:42:18;;;;;;;5.90;1.90;;;;;;;;;;5053862;28;20414;-77
2021/06/21 05:44:44;;;;;;;11.52;3.42;;;;;;;;;;5053080;28;20071;-78
2021/06/21 05:47:10;;;;;;;8.48;2.08;;;;;;;;;;5056578;28;20381;-78
2021/06/21 05:49:36;;;;;;;4.93;2.17;;;;;;;;;;5056857;28;20017;-78
2021/06/21 05:52:02;;;;;;;9.70;2.38;;;;;;;;;;5048298;28;20029;-82
2021/06/21 05:54:28;;;;;;;11.27;3.05;;;;;;;;;;5052002;28;20478;-77
2021/06/21 05:56:55;;;;;;;8.88;2.30;;;;;;;;;;5039302;28;20047;-78
2021/06/21 05:59:21;;;;;;;7.82;2.67;;;;;;;;;;5058503;28;20646;-81
2021/06/21 06:01:47;;;;;;;10.18;2.78;;;;;;;;;;5057219;28;20037;-81
2021/06/21 06:04:13;;;;;;;6.68;2.22;;;;;;;;;;5057679;28;20263;-82
2021/06/21 06:06:39;;;;;;;7.60;2.22;;;;;;;;;;5041869;28;20021;-82
2021/06/21 06:09:05;;;;;;;6.63;1.92;;;;;;;;;;5042110;28;20083;-81
2021/06/21 06:11:31;;;;;;;5.10;2.70;;;;;;;;;;5061336;28;20036;-81
2021/06/21 06:13:57;;;;;;;8.90;3.50;;;;;;;;;;5058447;28;20386;-82
2021/06/21 06:16:23;;;;;;;7.95;2.58;;;;;;;;;;5058507;28;20101;-82
2021/06/21 06:18:49;;;;;;;6.85;2.38;;;;;;;;;;5058432;28;20032;-82
2021/06/21 06:21:19;;;;;;;6.65;2.33;;;;;;;;;;5059302;28;20077;-82
2021/06/21 06:23:45;;;;;;;8.00;2.83;;;;;;;;;;5041009;28;20021;-82
2021/06/21 06:26:12;;;;;;;5.38;2.53;;;;;;;;;;5058575;28;20489;-82
2021/06/21 06:28:39;;;;;;;7.78;2.78;;;;;;;;;;5058223;28;20438;-82
2021/06/21 06:31:05;;;;;;;4.55;2.22;;;;;;;;;;5038694;28;20029;-82
2021/06/21 06:33:31;;;;;;;7.63;2.53;;;;;;;;;;5058600;28;20020;-82
2021/06/21 06:35:57;;;;;;;9.00;2.10;;;;;;;;;;5040106;28;20105;-82
2021/06/21 06:38:23;;;;;;;7.43;2.55;;;;;;;;;;5052450;28;20033;-83
2021/06/21 06:40:49;;;;;;;7.45;2.42;;;;;;;;;;5057652;28;20028;-83
2021/06/21 06:43:16;;;;;;;7.63;2.88;;;;;;;;;;5040348;28;20021;-82
2021/06/21 06:45:42;;;;;;;12.73;2.67;;;;;;;;;;5058315;28;20024;-83
2021/06/21 06:48:08;;;;;;;6.32;2.80;;;;;;;;;;5058690;28;20042;-81
2021/06/21 06:50:34;;;;;;;9.48;3.15;;;;;;;;;;5046842;28;20048;-79
2021/06/21 06:53:01;;;;;;;7.03;2.85;;;;;;;;;;5048207;28;20028;-82
2021/06/21 06:58:11;;;;;;;6.22;2.25;;;;;;;;;;5039693;28;20036;-81
2021/06/21 07:00:41;;;;;;;7.85;2.55;;;;;;;;;;5048230;28;20079;-84
2021/06/21 07:03:08;;;;;;;7.25;2.13;;;;;;;;;;5039722;28;20092;-82
2021/06/21 07:05:35;;;;;;;8.73;2.50;;;;;;;;;;5039848;28;20053;-81
2021/06/21 07:08:01;;;;;;;8.65;2.70;;;;;;;;;;5056428;28;20028;-83
2021/06/21 07:10:27;;;;;;;7.43;2.38;;;;;;;;;;5055315;28;20029;-83
2021/06/21 07:12:53;;;;;;;10.88;3.35;;;;;;;;;;5055901;28;20116;-83
2021/06/21 07:15:20;;;;;;;10.40;3.13;;;;;;;;;;5057891;28;20092;-83
2021/06/21 07:17:46;;;;;;;5.45;2.72;;;;;;;;;;5057450;28;20366;-84
2021/06/21 07:20:13;;;;;;;9.75;2.33;;;;;;;;;;5051030;28;20021;-83
2021/06/21 07:22:39;;;;;;;11.43;2.60;;;;;;;;;;5056250;28;20029;-84
2021/06/21 07:25:05;;;;;;;9.15;2.22;;;;;;;;;;5058724;28;20025;-82
2021/06/21 07:27:32;;;;;;;11.77;2.28;;;;;;;;;;5058642;28;20093;-82
2021/06/21 07:29:58;;;;;;;11.18;2.45;;;;;;;;;;5057986;28;20025;-82
2021/06/21 07:32:24;;;;;;;10.18;2.10;;;;;;;;;;5057501;28;20067;-82
2021/06/21 07:34:50;;;;;;;6.88;2.35;;;;;;;;;;5057350;28;20036;-82
2021/06/21 07:37:16;;;;;;;16.17;2.40;;;;;;;;;;5040038;28;20020;-82
2021/06/21 07:39:42;;;;;;;8.20;2.58;;;;;;;;;;5039733;28;20025;-82
2021/06/21 07:42:08;;;;;;;6.28;2.10;;;;;;;;;;5055958;28;20043;-81
2021/06/21 07:44:35;;;;;;;11.65;2.28;;;;;;;;;;5039359;28;20147;-83
2021/06/21 07:47:01;;;;;;;7.85;2.45;;;;;;;;;;5057546;28;20017;-83
2021/06/21 07:49:28;;;;;;;12.00;2.83;;;;;;;;;;5038669;28;20021;-83
2021/06/21 07:51:55;;;;;;;11.35;1.88;;;;;;;;;;5058082;28;20096;-83
2021/06/21 07:54:22;;;;;;;9.85;2.05;;;;;;;;;;5023781;28;20095;-82
2021/06/21 07:56:49;;;;;;;10.40;3.00;;;;;;;;;;5363668;22;20053;-77
2021/06/21 07:59:15;;;;;;;6.07;2.17;;;;;;;;;;5055681;28;20033;-78
2021/06/21 08:01:42;;;;;;;8.57;2.33;;;;;;;;;;5054358;28;20033;-79
2021/06/21 08:04:08;;;;;;;5.93;2.35;;;;;;;;;;5054159;28;20048;-77
2021/06/21 08:06:36;;;;;;;8.05;2.30;;;;;;;;;;5049614;28;20025;-78
2021/06/21 08:09:02;;;;;;;9.80;1.98;;;;;;;;;;5045121;28;20441;-79
2021/06/21 08:11:28;;;;;;;6.57;1.73;;;;;;;;;;5029703;28;20026;-77
2021/06/21 08:13:54;;;;;;;9.63;2.15;;;;;;;;;;5042545;28;20143;-76
2021/06/21 08:16:20;;;;;;;7.63;2.05;;;;;;;;;;5042654;28;20076;-78
2021/06/21 08:18:46;;;;;;;5.70;2.10;;;;;;;;;;5041025;28;20039;-77
2021/06/21 08:21:12;;;;;;;4.70;1.73;;;;;;;;;;5040173;28;20030;-78
2021/06/21 08:23:38;;;;;;;5.85;1.98;;;;;;;;;;5041558;28;20036;-77
2021/06/21 08:26:04;;;;;;;10.68;2.08;;;;;;;;;;5043102;28;20053;-77
2021/06/21 08:28:31;;;;;;;11.40;2.28;;;;;;;;;;5044036;28;20033;-78
2021/06/21 08:30:57;;;;;;;11.00;2.75;;;;;;;;;;5039964;28;20021;-78
2021/06/21 08:33:23;;;;;;;5.53;1.52;;;;;;;;;;5018384;28;20035;-77
2021/06/21 08:35:49;;;;;;;3.72;1.48;;;;;;;;;;5039211;28;20025;-76
2021/06/21 08:38:15;;;;;;;6.00;1.80;;;;;;;;;;5037686;28;20373;-77
2021/06/21 08:40:41;;;;;;;9.07;2.20;;;;;;;;;;5041002;28;20389;-77
2021/06/21 08:43:08;;;;;;;7.82;2.00;;;;;;;;;;5039840;28;20476;-77
2021/06/21 08:45:34;;;;;;;9.73;1.90;;;;;;;;;;5037221;28;20330;-77
2021/06/21 08:48:01;;;;;;;10.88;2.55;;;;;;;;;;5038792;28;20013;-77
2021/06/21 08:50:27;;;;;;;9.05;2.08;;;;;;;;;;5040307;28;20055;-77
2021/06/21 08:52:54;;;;;;;2.85;1.23;;;;;;;;;;5036660;28;20441;-78
2021/06/21 08:55:20;;;;;;;13.88;2.13;;;;;;;;;;5037560;28;20040;-77
2021/06/21 08:57:47;;;;;;;5.95;1.70;;;;;;;;;;5036348;28;20485;-78
2021/06/21 09:00:14;;;;;;;3.45;1.50;;;;;;;;;;5037386;28;20033;-78
2021/06/21 09:02:40;;;;;;;4.22;1.65;;;;;;;;;;5017609;28;20419;-77
2021/06/21 09:05:07;;;;;;;4.78;2.05;;;;;;;;;;5017632;28;20241;-79
2021/06/21 09:07:33;;;;;;;7.97;2.20;;;;;;;;;;5036676;28;20071;-77
2021/06/21 09:10:04;;;;;;;10.55;2.17;;;;;;;;;;5038508;28;20068;-78
2021/06/21 09:12:31;;;;;;;2.83;1.50;;;;;;;;;;5044799;28;20311;-77
2021/06/21 09:14:58;;;;;;;9.90;2.20;;;;;;;;;;5041667;28;20032;-78
2021/06/21 09:17:25;;;;;;;7.50;1.98;;;;;;;;;;5041576;28;20030;-77
2021/06/21 09:19:56;;;;;;;4.85;1.60;;;;;;;;;;5041519;28;20077;-77
2021/06/21 09:22:30;;;;;;;8.17;1.87;;;;;;;;;;5034374;28;20079;-77
2021/06/21 09:24:58;;;;;;;5.15;1.55;;;;;;;;;;5043593;28;20279;-77
2021/06/21 09:27:24;;;;;;;5.13;1.75;;;;;;;;;;5035236;28;20033;-78
2021/06/21 09:29:52;;;;;;;9.52;2.17;;;;;;;;;;5034245;28;20031;-77
2021/06/21 09:32:19;;;;;;;7.70;2.20;;;;;;;;;;5031721;28;20379;-78
2021/06/21 09:34:45;;;;;;;8.80;1.90;;;;;;;;;;5018096;28;20029;-78
2021/06/21 09:37:11;;;;;;;6.45;1.63;;;;;;;;;;5033850;28;20025;-77
2021/06/21 09:39:47;;;;;;;6.18;1.70;;;;;;;;;;5035822;28;20097;-78
2021/06/21 09:42:13;;;;;;;12.93;2.58;;;;;;;;;;5035604;28;20524;-78
2021/06/21 09:44:49;;;;;;;6.63;1.88;;;;;;;;;;5035961;28;20097;-78
2021/06/21 09:47:37;;;;;;;7.30;2.50;;;;;;;;;;5035105;28;20021;-78
2021/06/21 09:50:03;;;;;;;4.35;1.65;;;;;;;;;;4996881;28;20048;-77
2021/06/21 09:52:46;;;;;;;8.50;1.80;;;;;;;;;;5027158;28;20053;-79
2021/06/21 09:55:24;;;;;;;9.32;2.08;;;;;;;;;;5030652;28;20052;-78
2021/06/21 09:58:09;;;;;;;8.57;2.13;;;;;;;;;;5015042;28;20060;-77
2021/06/21 10:00:42;;;;;;;8.35;2.13;;;;;;;;;;5026926;28;20021;-78
2021/06/21 10:03:10;;;;;;;8.18;2.25;;;;;;;;;;5018430;28;20044;-77
2021/06/21 10:05:39;;;;;;;11.65;2.83;;;;;;;;;;5032734;28;20044;-77
2021/06/21 10:08:05;;;;;;;6.85;1.90;;;;;;;;;;5029849;28;20046;-77
2021/06/21 10:10:32;;;;;;;10.93;2.75;;;;;;;;;;5013122;28;20474;-77
2021/06/21 10:12:58;;;;;;;12.18;3.03;;;;;;;;;;5023519;28;20040;-77
2021/06/21 10:15:24;;;;;;;6.75;2.00;;;;;;;;;;5036771;28;20038;-78
2021/06/21 10:17:50;;;;;;;8.30;2.55;;;;;;;;;;5036645;28;20049;-78
2021/06/21 10:20:17;;;;;;;10.82;2.15;;;;;;;;;;5015305;28;20036;-79
2021/06/21 10:22:43;;;;;;;3.35;1.70;;;;;;;;;;5031725;28;20049;-77
2021/06/21 10:25:10;;;;;;;8.15;2.08;;;;;;;;;;5035178;28;20029;-76
2021/06/21 10:27:41;;;;;;;7.78;2.47;;;;;;;;;;5034599;28;20025;-76
2021/06/21 10:30:09;;;;;;;8.40;2.03;;;;;;;;;;5039130;28;20456;-76
2021/06/21 10:32:35;;;;;;;8.77;2.70;;;;;;;;;;5050301;28;20416;-77
2021/06/21 10:35:01;;;;;;;15.77;2.63;;;;;;;;;;5057514;28;20029;-77
2021/06/21 10:37:27;;;;;;;6.53;1.95;;;;;;;;;;5059212;28;20029;-78
2021/06/21 10:40:05;;;;;;;10.02;2.58;;;;;;;;;;5056759;28;20028;-79
2021/06/21 10:42:37;;;;;;;7.45;2.35;;;;;;;;;;5058853;28;20036;-77
2021/06/21 10:45:10;;;;;;;6.13;1.98;;;;;;;;;;5059118;28;20028;-78
2021/06/21 10:47:47;;;;;;;9.57;2.30;;;;;;;;;;5044245;28;20382;-78
2021/06/21 10:50:20;;;;;;;7.47;2.05;;;;;;;;;;5057199;28;20089;-77
2021/06/21 10:52:49;;;;;;;5.75;2.00;;;;;;;;;;5036256;28;20540;-78
2021/06/21 10:55:21;;;;;;;6.95;2.00;;;;;;;;;;5039722;28;20108;-76
2021/06/21 10:57:47;;;;;;;5.85;1.52;;;;;;;;;;5039347;28;20038;-78
2021/06/21 11:00:15;;;;;;;9.07;2.22;;;;;;;;;;5052809;28;20033;-77
2021/06/21 11:02:41;;;;;;;9.65;3.05;;;;;;;;;;5039111;28;20098;-77
2021/06/21 11:05:07;;;;;;;6.97;2.60;;;;;;;;;;5039056;28;20040;-78
2021/06/21 11:07:33;;;;;;;9.85;2.22;;;;;;;;;;5022417;28;20029;-77
2021/06/21 11:10:01;;;;;;;8.32;2.08;;;;;;;;;;5039436;28;20033;-78
2021/06/21 11:12:33;;;;;;;5.72;2.00;;;;;;;;;;5042259;28;20036;-77
2021/06/21 11:15:09;;;;;;;7.18;2.55;;;;;;;;;;5021126;28;20104;-78
2021/06/21 11:17:44;;;;;;;5.03;2.30;;;;;;;;;;5039905;28;20022;-77
2021/06/21 11:20:29;;;;;;;7.65;2.25;;;;;;;;;;5056087;28;20051;-77
2021/06/21 11:23:00;;;;;;;8.13;2.33;;;;;;;;;;5041238;28;20074;-78
2021/06/21 11:25:28;;;;;;;9.18;2.03;;;;;;;;;;5043528;28;20022;-77
2021/06/21 11:27:54;;;;;;;7.40;2.28;;;;;;;;;;5040946;28;20060;-78
2021/06/21 11:30:22;;;;;;;9.77;2.38;;;;;;;;;;5044486;28;20085;-79
2021/06/21 11:32:53;;;;;;;9.68;2.17;;;;;;;;;;5041037;28;20112;-77
2021/06/21 11:35:39;;;;;;;6.72;2.20;;;;;;;;;;5050021;28;20032;-76
2021/06/21 11:38:25;;;;;;;5.90;1.98;;;;;;;;;;5032939;28;20033;-77
2021/06/21 11:41:10;;;;;;;9.13;3.58;;;;;;;;;;5050672;28;20092;-77
2021/06/21 11:44:03;;;;;;;7.22;1.77;;;;;;;;;;5048761;28;20032;-77
2021/06/21 11:46:38;;;;;;;6.28;1.88;;;;;;;;;;5044321;28;20226;-78
2021/06/21 11:49:18;;;;;;;7.95;2.03;;;;;;;;;;5037658;28;20045;-76
2021/06/21 11:52:01;;;;;;;10.95;2.90;;;;;;;;;;5019568;28;20030;-77
2021/06/21 11:54:28;;;;;;;7.95;2.42;;;;;;;;;;5037833;28;20056;-77
2021/06/21 11:56:55;;;;;;;5.30;2.00;;;;;;;;;;5038916;28;20494;-76
2021/06/21 11:59:29;;;;;;;6.28;2.22;;;;;;;;;;5040441;28;20029;-76
2021/06/21 12:02:02;;;;;;;7.78;3.00;;;;;;;;;;5038179;28;20026;-77
2021/06/21 12:04:29;;;;;;;12.07;2.33;;;;;;;;;;5021152;28;20143;-77
2021/06/21 12:06:56;;;;;;;8.23;2.67;;;;;;;;;;5037777;28;20029;-77
2021/06/21 12:09:45;;;;;;;8.40;3.08;;;;;;;;;;5038920;28;20021;-77
2021/06/21 12:12:21;;;;;;;9.88;2.40;;;;;;;;;;5040427;28;20029;-78
2021/06/21 12:14:47;;;;;;;4.05;2.05;;;;;;;;;;5042707;28;20077;-78
2021/06/21 12:17:13;;;;;;;5.25;1.80;;;;;;;;;;5045292;28;20386;-79
2021/06/21 12:19:39;;;;;;;5.28;2.10;;;;;;;;;;5046060;28;20029;-79
2021/06/21 12:22:06;;;;;;;10.75;2.22;;;;;;;;;;5026976;28;20033;-78
2021/06/21 12:24:33;;;;;;;8.90;2.40;;;;;;;;;;5027215;28;20037;-79
2021/06/21 12:27:08;;;;;;;3.22;1.75;;;;;;;;;;5028594;28;20029;-78
2021/06/21 12:29:36;;;;;;;12.82;2.55;;;;;;;;;;5027465;28;20072;-77
2021/06/21 12:32:07;;;;;;;6.72;1.90;;;;;;;;;;5028021;28;20269;-77
2021/06/21 12:34:50;;;;;;;8.50;2.70;;;;;;;;;;5044691;28;20393;-77
2021/06/21 12:37:35;;;;;;;5.70;1.83;;;;;;;;;;5044277;28;20276;-77
2021/06/21 12:40:16;;;;;;;6.30;2.60;;;;;;;;;;5045368;28;20033;-77
2021/06/21 12:42:43;;;;;;;14.48;2.30;;;;;;;;;;5045558;28;20455;-77
2021/06/21 12:45:09;;;;;;;6.97;2.03;;;;;;;;;;5047861;28;20493;-78
2021/06/21 12:47:35;;;;;;;6.93;1.90;;;;;;;;;;5045320;28;20041;-76
2021/06/21 12:50:06;;;;;;;8.35;2.60;;;;;;;;;;5043099;28;20018;-78
2021/06/21 12:52:33;;;;;;;11.43;2.15;;;;;;;;;;5041692;28;20104;-79
2021/06/21 12:55:07;;;;;;;6.47;2.00;;;;;;;;;;5024272;28;20032;-77
2021/06/21 12:57:44;;;;;;;5.07;1.58;;;;;;;;;;5038212;28;20109;-78
2021/06/21 13:00:11;;;;;;;7.15;2.20;;;;;;;;;;5038256;28;20103;-77
2021/06/21 13:02:37;;;;;;;7.53;2.15;;;;;;;;;;5028213;28;20521;-78
2021/06/21 13:05:10;;;;;;;14.27;2.60;;;;;;;;;;5025707;28;20076;-79
2021/06/21 13:07:36;;;;;;;7.18;2.33;;;;;;;;;;5003392;28;20014;-78
2021/06/21 13:10:03;;;;;;;8.60;1.98;;;;;;;;;;5014500;28;20018;-78
2021/06/21 13:12:30;;;;;;;14.77;2.28;;;;;;;;;;5023898;28;20446;-79
2021/06/21 13:15:22;;;;;;;6.40;2.10;;;;;;;;;;5042322;28;20043;-78
2021/06/21 13:17:49;;;;;;;5.55;1.83;;;;;;;;;;5033274;28;20048;-77
2021/06/21 13:20:16;;;;;;;10.02;2.10;;;;;;;;;;5018668;28;20022;-77
2021/06/21 13:22:43;;;;;;;9.50;2.42;;;;;;;;;;5020754;28;20059;-77
2021/06/21 13:25:14;;;;;;;11.02;2.33;;;;;;;;;;5019687;28;20045;-78
2021/06/21 13:27:48;;;;;;;12.90;2.28;;;;;;;;;;5023300;28;20028;-78
2021/06/21 13:30:20;;;;;;;9.38;2.97;;;;;;;;;;5034533;28;20042;-78
2021/06/21 13:32:46;;;;;;;12.55;2.05;;;;;;;;;;5032933;28;20038;-78
2021/06/21 13:35:15;;;;;;;5.53;2.03;;;;;;;;;;5042508;28;20474;-78
2021/06/21 13:37:44;;;;;;;5.97;2.85;;;;;;;;;;5033862;28;20074;-77
2021/06/21 13:40:11;;;;;;;6.38;1.90;;;;;;;;;;5034387;28;20029;-76
2021/06/21 13:42:39;;;;;;;7.45;2.47;;;;;;;;;;5035358;28;20030;-77
2021/06/21 13:45:08;;;;;;;12.70;2.20;;;;;;;;;;5039555;28;20473;-77
2021/06/21 13:47:34;;;;;;;9.25;2.35;;;;;;;;;;5036224;28;20049;-78
2021/06/21 13:50:01;;;;;;;6.85;1.95;;;;;;;;;;5033788;28;20036;-77
2021/06/21 13:52:37;;;;;;;5.38;1.80;;;;;;;;;;5034451;28;20470;-77
2021/06/21 13:55:05;;;;;;;9.07;2.13;;;;;;;;;;5050103;28;20033;-78
2021/06/21 13:57:42;;;;;;;7.18;2.10;;;;;;;;;;5037712;23;20038;-80
2021/06/21 14:00:26;;;;;;;7.40;2.42;;;;;;;;;;4997125;28;20031;-79
2021/06/21 14:02:53;;;;;;;7.90;2.30;;;;;;;;;;4994197;28;20039;-78
2021/06/21 14:05:19;;;;;;;5.55;2.00;;;;;;;;;;4979918;28;20321;-81
2021/06/21 14:07:45;;;;;;;4.40;2.08;;;;;;;;;;5005120;28;20022;-78
2021/06/21 14:10:11;;;;;;;11.30;2.67;;;;;;;;;;4998831;28;20076;-79
2021/06/21 14:12:37;;;;;;;7.95;2.30;;;;;;;;;;4997882;28;20078;-78
2021/06/21 14:15:05;;;;;;;12.82;2.22;;;;;;;;;;4999921;28;20027;-79
2021/06/21 14:17:31;;;;;;;6.30;2.50;;;;;;;;;;4999575;28;20027;-78
2021/06/21 14:19:58;;;;;;;18.00;2.83;;;;;;;;;;4997745;28;20029;-79
2021/06/21 14:22:24;;;;;;;14.02;2.50;;;;;;;;;;5006033;28;20490;-78
2021/06/21 14:24:50;;;;;;;5.03;1.98;;;;;;;;;;4998584;28;20061;-78
2021/06/21 14:27:17;;;;;;;6.22;1.80;;;;;;;;;;5000289;28;20037;-79
2021/06/21 14:29:44;;;;;;;10.57;2.60;;;;;;;;;;4999225;28;20513;-78
2021/06/21 14:32:10;;;;;;;11.50;2.85;;;;;;;;;;4981713;28;20026;-78
2021/06/21 14:34:37;;;;;;;6.90;2.40;;;;;;;;;;4984410;28;20045;-79
2021/06/21 14:37:03;;;;;;;8.55;2.50;;;;;;;;;;5009095;28;20026;-79
2021/06/21 14:39:30;;;;;;;5.07;1.90;;;;;;;;;;5000124;28;20456;-79
2021/06/21 14:41:56;;;;;;;7.50;1.98;;;;;;;;;;4983522;28;20027;-79
2021/06/21 14:44:22;;;;;;;6.80;1.98;;;;;;;;;;4996496;28;20034;-78
2021/06/21 14:46:48;;;;;;;14.02;2.88;;;;;;;;;;4981357;28;20027;-79
2021/06/21 14:49:14;;;;;;;7.55;2.35;;;;;;;;;;4987611;28;20027;-79